Time;durP1;ratioP1;P1;durP2;ratioP2;P2;SDS_P1;SDS_P2;PMS_P1;PMS_P2;Temp;Humidity;BMP_temperature;BMP_pressure;BME280_temperature;BME280_humidity;BME280_pressure;Samples;Min_cycle;Max_cycle;Signal;HPM_P1;HPM_P2
2022/08/16 00:02:03;;;;;;;8.17;7.57;;;21.80;99.00;;;;;;5013148;28;20430;-65
2022/08/16 00:04:29;;;;;;;8.67;7.97;;;21.80;99.20;;;;;;5013616;28;20449;-65
2022/08/16 00:06:55;;;;;;;8.93;8.30;;;21.70;99.30;;;;;;5014391;28;20765;-65
2022/08/16 00:09:21;;;;;;;8.90;8.20;;;21.70;99.30;;;;;;5013007;28;20187;-65
2022/08/16 00:11:49;;;;;;;9.00;8.10;;;21.60;99.40;;;;;;4995858;28;20544;-65
2022/08/16 00:14:19;;;;;;;9.10;8.50;;;21.60;99.60;;;;;;5013465;28;20414;-65
2022/08/16 00:16:45;;;;;;;8.80;8.23;;;21.40;99.90;;;;;;5014181;28;20423;-64
2022/08/16 00:19:14;;;;;;;8.73;8.13;;;21.40;99.90;;;;;;5013404;28;20479;-75
2022/08/16 00:21:41;;;;;;;8.20;7.60;;;21.50;99.90;;;;;;5014330;28;20504;-65
2022/08/16 00:24:06;;;;;;;8.30;7.60;;;21.60;99.90;;;;;;5013838;28;20536;-65
2022/08/16 00:26:32;;;;;;;7.37;6.87;;;21.60;99.90;;;;;;5013303;28;20407;-64
2022/08/16 00:28:58;;;;;;;8.47;7.93;;;21.70;99.90;;;;;;4962352;28;20217;-65
2022/08/16 00:31:24;;;;;;;7.67;7.17;;;21.70;99.80;;;;;;5013199;28;20185;-65
2022/08/16 00:33:49;;;;;;;7.70;7.30;;;21.70;99.70;;;;;;5013913;28;20182;-65
2022/08/16 00:36:15;;;;;;;9.00;8.40;;;21.80;99.80;;;;;;4995013;28;20184;-65
2022/08/16 00:38:41;;;;;;;8.63;8.03;;;21.90;99.70;;;;;;5013711;28;20472;-65
2022/08/16 00:41:07;;;;;;;9.33;8.63;;;21.90;99.50;;;;;;5013309;28;20241;-64
2022/08/16 00:43:35;;;;;;;7.70;7.20;;;21.90;99.30;;;;;;5012931;28;20262;-65
2022/08/16 00:46:25;;;;;;;8.20;7.60;;;21.90;99.20;;;;;;5012496;28;20434;-65
2022/08/16 00:48:51;;;;;;;8.57;7.97;;;21.90;99.30;;;;;;5013044;28;20405;-65
2022/08/16 00:51:20;;;;;;;8.60;8.00;;;21.80;99.20;;;;;;5012824;28;20417;-65
2022/08/16 00:53:47;;;;;;;8.40;7.80;;;21.90;99.40;;;;;;5013042;28;20407;-65
2022/08/16 00:56:17;;;;;;;8.73;8.13;;;21.90;99.40;;;;;;5013336;28;20409;-65
2022/08/16 00:58:45;;;;;;;8.33;7.83;;;21.90;99.40;;;;;;5013471;28;20402;-65
2022/08/16 01:01:12;;;;;;;7.57;7.07;;;21.90;99.40;;;;;;5012071;28;20426;-65
2022/08/16 01:03:41;;;;;;;8.73;8.00;;;21.90;99.40;;;;;;5012063;28;20561;-65
2022/08/16 01:06:08;;;;;;;7.50;7.00;;;21.90;99.40;;;;;;5013173;28;20429;-65
2022/08/16 01:08:35;;;;;;;8.27;7.77;;;21.90;99.50;;;;;;5012284;28;20679;-65
2022/08/16 01:11:03;;;;;;;7.97;7.47;;;21.90;99.40;;;;;;5013139;28;20395;-65
2022/08/16 01:13:32;;;;;;;7.53;7.13;;;21.90;99.40;;;;;;4994850;28;20766;-65
2022/08/16 01:16:12;;;;;;;7.80;7.30;;;21.80;99.30;;;;;;5012442;28;20940;-65
2022/08/16 01:18:43;;;;;;;7.67;7.17;;;21.90;99.30;;;;;;5012492;28;20398;-65
2022/08/16 01:21:48;;;;;;;8.03;7.53;;;21.80;99.20;;;;;;5013062;28;20481;-65
2022/08/16 01:24:23;;;;;;;7.43;6.80;;;21.80;99.20;;;;;;4995077;28;20465;-64
2022/08/16 01:26:51;;;;;;;7.60;7.10;;;21.80;99.10;;;;;;5013055;28;20421;-65
2022/08/16 01:29:24;;;;;;;7.27;6.77;;;21.80;99.10;;;;;;5012448;28;20414;-65
2022/08/16 01:31:49;;;;;;;8.60;7.90;;;21.80;99.20;;;;;;5011512;28;20433;-65
2022/08/16 01:34:17;;;;;;;7.27;6.73;;;21.80;99.20;;;;;;5012902;28;20402;-66
2022/08/16 01:36:43;;;;;;;7.30;6.80;;;21.80;99.30;;;;;;5012575;28;20179;-65
2022/08/16 01:39:12;;;;;;;8.20;7.70;;;21.80;99.70;;;;;;5011992;28;20406;-64
2022/08/16 01:41:39;;;;;;;8.10;7.50;;;21.80;99.40;;;;;;5011928;28;20977;-65
2022/08/16 01:44:05;;;;;;;8.30;7.80;;;21.80;99.60;;;;;;4994330;28;20461;-65
2022/08/16 01:46:38;;;;;;;8.07;7.57;;;21.80;99.60;;;;;;4994250;28;20418;-65
2022/08/16 01:49:14;;;;;;;8.00;7.50;;;21.80;99.70;;;;;;5010756;28;20477;-65
2022/08/16 01:51:42;;;;;;;7.93;7.43;;;21.80;99.60;;;;;;5012220;28;20408;-65
2022/08/16 01:54:08;;;;;;;7.33;6.73;;;21.80;99.70;;;;;;5016799;28;20418;-65
2022/08/16 01:56:35;;;;;;;7.50;6.90;;;21.90;99.80;;;;;;4998565;28;20433;-65
2022/08/16 01:59:04;;;;;;;7.70;7.30;;;21.90;99.90;;;;;;5015969;28;20183;-65
2022/08/16 02:01:30;;;;;;;8.03;7.50;;;21.90;99.80;;;;;;5015958;28;20417;-65
2022/08/16 02:03:57;;;;;;;8.20;7.50;;;22.00;99.90;;;;;;5015958;28;20480;-65
2022/08/16 02:06:23;;;;;;;7.73;7.23;;;22.00;99.90;;;;;;5015629;28;20437;-65
2022/08/16 02:08:49;;;;;;;7.73;7.23;;;21.90;99.80;;;;;;5016835;28;20951;-64
2022/08/16 02:11:15;;;;;;;6.93;6.47;;;21.90;99.60;;;;;;4998772;28;20426;-65
2022/08/16 02:13:40;;;;;;;8.67;7.93;;;21.90;99.60;;;;;;5015738;28;20402;-65
2022/08/16 02:16:09;;;;;;;8.33;7.53;;;21.90;99.60;;;;;;5016350;28;20521;-65
2022/08/16 02:18:35;;;;;;;7.80;7.20;;;21.80;99.60;;;;;;5015721;28;20179;-65
2022/08/16 02:21:03;;;;;;;8.67;8.07;;;21.80;99.80;;;;;;5015592;28;20964;-64
2022/08/16 02:23:29;;;;;;;8.10;7.50;;;21.80;99.80;;;;;;5015513;28;20929;-65
2022/08/16 02:25:54;;;;;;;8.30;7.70;;;21.80;99.70;;;;;;5015234;28;20484;-65
2022/08/16 02:28:23;;;;;;;8.70;8.10;;;21.80;99.80;;;;;;5015528;28;20211;-65
2022/08/16 02:30:48;;;;;;;9.43;8.73;;;21.90;99.90;;;;;;5016042;28;20175;-65
2022/08/16 02:33:14;;;;;;;8.33;7.73;;;21.90;99.90;;;;;;5016138;28;20931;-65
2022/08/16 02:35:40;;;;;;;8.63;8.03;;;21.90;99.90;;;;;;5015430;28;20187;-65
2022/08/16 02:38:07;;;;;;;9.20;8.40;;;21.90;99.90;;;;;;5015236;28;20557;-65
2022/08/16 02:40:32;;;;;;;8.60;8.10;;;21.90;99.90;;;;;;5015309;28;20410;-65
2022/08/16 02:42:59;;;;;;;8.60;8.07;;;21.90;99.90;;;;;;5015769;28;20421;-65
2022/08/16 02:45:27;;;;;;;9.00;8.33;;;21.90;99.90;;;;;;5014618;28;20221;-65
2022/08/16 02:47:53;;;;;;;8.33;7.83;;;21.90;99.90;;;;;;5015722;28;20398;-65
2022/08/16 02:50:19;;;;;;;8.87;8.27;;;21.90;99.90;;;;;;4998173;28;20413;-65
2022/08/16 02:52:45;;;;;;;8.93;8.23;;;21.90;99.90;;;;;;5014949;28;20478;-65
2022/08/16 02:55:12;;;;;;;8.20;7.70;;;21.90;99.90;;;;;;5015874;28;20747;-65
2022/08/16 02:57:38;;;;;;;8.13;7.43;;;21.90;99.90;;;;;;5014933;28;20764;-65
2022/08/16 03:00:08;;;;;;;8.90;8.30;;;21.90;99.90;;;;;;5015494;28;20422;-65
2022/08/16 03:02:35;;;;;;;10.67;9.87;;;21.90;99.90;;;;;;5014638;28;20465;-65
2022/08/16 03:05:01;;;;;;;9.30;8.60;;;21.90;99.90;;;;;;5015224;28;20544;-65
2022/08/16 03:07:27;;;;;;;10.33;9.43;;;21.90;99.90;;;;;;5014474;28;20849;-66
2022/08/16 03:09:53;;;;;;;9.80;9.20;;;21.90;99.90;;;;;;5005752;28;20457;-66
2022/08/16 03:12:18;;;;;;;9.20;8.60;;;21.80;99.90;;;;;;4995413;28;20230;-66
2022/08/16 03:14:45;;;;;;;9.30;8.70;;;21.80;99.90;;;;;;5001404;28;20183;-66
2022/08/16 03:17:11;;;;;;;9.80;8.97;;;21.80;99.90;;;;;;5014926;28;20171;-66
2022/08/16 03:19:36;;;;;;;9.77;8.97;;;21.80;99.90;;;;;;5012774;28;20456;-66
2022/08/16 03:22:02;;;;;;;8.73;7.90;;;21.80;99.90;;;;;;5014773;28;20181;-66
2022/08/16 03:24:28;;;;;;;8.70;8.10;;;21.70;99.90;;;;;;5014030;28;20199;-66
2022/08/16 03:26:57;;;;;;;9.20;8.50;;;21.70;99.90;;;;;;5013766;28;20187;-66
2022/08/16 03:29:26;;;;;;;8.70;8.20;;;21.70;99.90;;;;;;5014353;28;20501;-76
2022/08/16 03:31:52;;;;;;;9.50;8.80;;;21.60;99.90;;;;;;5014450;28;20423;-66
2022/08/16 03:34:18;;;;;;;8.93;8.30;;;21.60;99.90;;;;;;5014539;28;20426;-66
2022/08/16 03:36:44;;;;;;;8.73;8.03;;;21.60;99.90;;;;;;4996182;28;20414;-66
2022/08/16 03:39:11;;;;;;;9.57;8.77;;;21.60;99.90;;;;;;5014433;28;20472;-66
2022/08/16 03:41:37;;;;;;;8.57;7.87;;;21.60;99.90;;;;;;5012529;28;20183;-65
2022/08/16 03:44:06;;;;;;;11.23;10.40;;;21.60;99.90;;;;;;5014253;28;20504;-66
2022/08/16 03:46:32;;;;;;;10.17;9.20;;;21.50;99.90;;;;;;4996215;28;20921;-66
2022/08/16 03:48:58;;;;;;;10.23;9.53;;;21.60;99.90;;;;;;5014580;28;20783;-66
2022/08/16 03:51:24;;;;;;;10.30;9.60;;;21.60;99.90;;;;;;4996557;28;20406;-77
2022/08/16 03:53:50;;;;;;;8.80;8.20;;;21.60;99.90;;;;;;5014877;28;20183;-66
2022/08/16 03:56:16;;;;;;;7.87;7.13;;;21.60;99.90;;;;;;5014533;28;20406;-66
2022/08/16 03:58:42;;;;;;;7.93;7.23;;;21.60;99.90;;;;;;5013092;28;20190;-66
2022/08/16 04:01:09;;;;;;;7.77;7.17;;;21.60;99.90;;;;;;5014380;28;20406;-66
2022/08/16 04:03:35;;;;;;;8.07;7.43;;;21.70;99.90;;;;;;5012764;28;20497;-66
2022/08/16 04:06:01;;;;;;;7.70;7.10;;;21.60;99.90;;;;;;5014280;28;20484;-66
2022/08/16 04:08:27;;;;;;;8.53;7.93;;;21.60;99.90;;;;;;5013496;28;20992;-66
2022/08/16 04:10:54;;;;;;;10.77;10.07;;;21.60;99.90;;;;;;5014276;28;20403;-66
2022/08/16 04:13:20;;;;;;;7.40;6.83;;;21.60;99.90;;;;;;4996031;28;20175;-66
2022/08/16 04:15:46;;;;;;;10.57;9.97;;;21.60;99.90;;;;;;5012849;28;20763;-66
2022/08/16 04:18:12;;;;;;;10.13;9.63;;;21.60;99.90;;;;;;5013761;28;20403;-66
2022/08/16 04:20:38;;;;;;;8.50;7.90;;;21.50;99.90;;;;;;4995821;28;20418;-66
2022/08/16 04:23:06;;;;;;;7.07;6.53;;;21.50;99.90;;;;;;5013892;28;20512;-66
2022/08/16 04:25:33;;;;;;;7.00;6.60;;;21.50;99.90;;;;;;5011742;28;20243;-66
2022/08/16 04:27:59;;;;;;;8.10;7.50;;;21.50;99.90;;;;;;5013506;28;20410;-66
2022/08/16 04:30:26;;;;;;;7.90;7.33;;;21.50;99.90;;;;;;5012728;28;20920;-65
2022/08/16 04:32:53;;;;;;;7.33;6.83;;;21.50;99.90;;;;;;5012564;28;20534;-66
2022/08/16 04:35:21;;;;;;;9.40;8.60;;;21.50;99.90;;;;;;5013049;28;20442;-66
2022/08/16 04:37:48;;;;;;;9.60;8.90;;;21.50;99.90;;;;;;5011957;28;21113;-66
2022/08/16 04:40:14;;;;;;;8.10;7.40;;;21.40;99.90;;;;;;5013357;28;20493;-66
2022/08/16 04:42:42;;;;;;;7.67;7.10;;;21.50;99.90;;;;;;5012507;28;20835;-66
2022/08/16 04:45:15;;;;;;;9.07;8.47;;;21.50;99.90;;;;;;5012438;28;20933;-66
2022/08/16 04:47:41;;;;;;;8.13;7.30;;;21.40;99.90;;;;;;4994704;28;20426;-66
2022/08/16 04:50:17;;;;;;;9.67;7.93;;;21.40;99.90;;;;;;5013152;28;20866;-66
2022/08/16 04:52:46;;;;;;;10.10;9.33;;;21.40;99.90;;;;;;4992552;28;20556;-66
2022/08/16 04:55:16;;;;;;;8.07;7.47;;;21.40;99.90;;;;;;4976000;28;20777;-66
2022/08/16 04:57:43;;;;;;;8.63;7.00;;;21.40;99.90;;;;;;5010127;28;20422;-66
2022/08/16 05:00:14;;;;;;;9.27;8.77;;;21.50;99.90;;;;;;5012136;28;20755;-66
2022/08/16 05:02:40;;;;;;;7.77;7.27;;;21.50;99.90;;;;;;5011375;28;20458;-66
2022/08/16 05:05:07;;;;;;;9.60;9.07;;;21.50;99.90;;;;;;5011951;28;20469;-66
2022/08/16 05:07:33;;;;;;;10.20;9.50;;;21.50;99.90;;;;;;5011781;28;20771;-67
2022/08/16 05:09:59;;;;;;;8.50;7.87;;;21.50;99.90;;;;;;5012768;28;20506;-66
2022/08/16 05:12:25;;;;;;;7.50;7.00;;;21.50;99.90;;;;;;5010191;28;20932;-66
2022/08/16 05:14:51;;;;;;;8.53;7.87;;;21.50;99.90;;;;;;4994277;28;20418;-66
2022/08/16 05:17:16;;;;;;;7.97;7.37;;;21.60;99.90;;;;;;5012743;28;20183;-66
2022/08/16 05:19:42;;;;;;;8.87;8.07;;;21.70;99.90;;;;;;5011911;28;20262;-66
2022/08/16 05:22:08;;;;;;;11.20;10.53;;;21.70;99.90;;;;;;5011957;28;20186;-66
2022/08/16 05:24:34;;;;;;;8.37;7.77;;;21.80;99.90;;;;;;5011723;28;20207;-69
2022/08/16 05:26:59;;;;;;;10.30;9.70;;;21.80;99.90;;;;;;5012300;28;20205;-66
2022/08/16 05:29:25;;;;;;;8.00;7.37;;;21.80;99.90;;;;;;5012572;28;20262;-66
2022/08/16 05:31:51;;;;;;;10.50;9.80;;;21.80;99.90;;;;;;5009828;28;20794;-66
2022/08/16 05:34:20;;;;;;;11.43;10.63;;;21.80;99.90;;;;;;5012605;28;20186;-66
2022/08/16 05:36:48;;;;;;;9.13;8.53;;;21.90;99.90;;;;;;5010922;28;20178;-71
2022/08/16 05:39:14;;;;;;;7.03;6.47;;;21.90;99.90;;;;;;4993029;28;20910;-68
2022/08/16 05:41:39;;;;;;;7.30;6.70;;;21.90;99.90;;;;;;5010795;28;20871;-68
2022/08/16 05:44:05;;;;;;;9.97;9.27;;;22.00;99.90;;;;;;4994776;28;20473;-66
2022/08/16 05:46:31;;;;;;;8.73;8.13;;;22.10;99.90;;;;;;5009824;28;20218;-67
2022/08/16 05:48:58;;;;;;;8.87;8.37;;;22.30;99.90;;;;;;5011191;28;20187;-67
2022/08/16 05:51:24;;;;;;;7.43;6.93;;;22.60;99.90;;;;;;5011574;28;20187;-68
2022/08/16 05:53:50;;;;;;;7.47;6.87;;;22.80;99.90;;;;;;5007280;28;20943;-67
2022/08/16 05:56:16;;;;;;;8.73;8.13;;;23.00;99.90;;;;;;5009152;28;20438;-67
2022/08/16 05:58:42;;;;;;;7.53;6.90;;;23.10;98.80;;;;;;5011391;28;20182;-67
2022/08/16 06:01:08;;;;;;;7.27;6.77;;;23.30;99.00;;;;;;5011572;28;20554;-67
2022/08/16 06:03:33;;;;;;;7.80;7.20;;;23.40;98.20;;;;;;5011046;28;20453;-70
2022/08/16 06:05:59;;;;;;;7.40;6.80;;;23.60;97.70;;;;;;5010785;28;20222;-67
2022/08/16 06:08:25;;;;;;;19.10;17.30;;;23.50;96.60;;;;;;5012015;28;20190;-67
2022/08/16 06:10:51;;;;;;;9.10;8.40;;;23.50;97.60;;;;;;4989884;28;20266;-67
2022/08/16 06:13:17;;;;;;;7.33;6.83;;;23.40;96.90;;;;;;5012245;28;20507;-66
2022/08/16 06:15:42;;;;;;;6.80;6.40;;;23.40;96.60;;;;;;4993200;28;20905;-66
2022/08/16 06:18:08;;;;;;;7.40;6.90;;;23.40;97.60;;;;;;5012049;28;20175;-66
2022/08/16 06:20:34;;;;;;;7.97;7.47;;;23.40;97.50;;;;;;5011590;28;20265;-67
2022/08/16 06:22:59;;;;;;;9.47;8.57;;;23.40;98.40;;;;;;5010338;28;20183;-67
2022/08/16 06:25:27;;;;;;;7.10;6.40;;;23.30;97.90;;;;;;5007312;28;20207;-64
2022/08/16 06:27:53;;;;;;;8.80;8.20;;;23.20;97.50;;;;;;5011440;28;20849;-64
2022/08/16 06:30:19;;;;;;;8.23;7.57;;;23.20;97.90;;;;;;4994282;28;20454;-65
2022/08/16 06:32:46;;;;;;;13.33;12.27;;;23.20;97.30;;;;;;5011614;28;20508;-64
2022/08/16 06:35:14;;;;;;;7.17;6.67;;;23.20;97.40;;;;;;5012037;28;20426;-64
2022/08/16 06:37:40;;;;;;;9.07;8.40;;;23.20;97.50;;;;;;5011268;28;20959;-64
2022/08/16 06:40:06;;;;;;;6.37;5.97;;;23.20;97.40;;;;;;5015448;28;20889;-64
2022/08/16 06:42:32;;;;;;;7.50;6.80;;;23.20;97.20;;;;;;5014576;28;20441;-64
2022/08/16 06:44:58;;;;;;;7.00;6.50;;;23.20;97.30;;;;;;5014468;28;20471;-65
2022/08/16 06:47:23;;;;;;;7.17;6.57;;;23.20;97.10;;;;;;5014467;28;20187;-64
2022/08/16 06:49:49;;;;;;;7.10;6.50;;;23.20;97.20;;;;;;5012822;28;20186;-64
2022/08/16 06:52:15;;;;;;;7.93;7.43;;;23.20;97.60;;;;;;5013618;28;20182;-65
2022/08/16 06:54:41;;;;;;;7.20;6.23;;;23.10;96.90;;;;;;5012916;28;20232;-64
2022/08/16 06:57:09;;;;;;;7.23;6.57;;;23.10;97.40;;;;;;5015235;28;20250;-64
2022/08/16 06:59:36;;;;;;;8.50;8.00;;;23.00;97.80;;;;;;5014975;28;20426;-70
2022/08/16 07:02:03;;;;;;;7.57;7.07;;;23.10;98.00;;;;;;5015072;28;20406;-64
2022/08/16 07:04:29;;;;;;;6.87;6.37;;;23.10;97.80;;;;;;4995803;28;20450;-64
2022/08/16 07:06:55;;;;;;;7.53;7.03;;;23.20;97.70;;;;;;4995278;28;20513;-64
2022/08/16 07:09:21;;;;;;;8.67;8.07;;;23.20;97.70;;;;;;4995749;28;20494;-64
2022/08/16 07:11:47;;;;;;;7.53;7.03;;;23.30;97.80;;;;;;5008663;28;20414;-64
2022/08/16 07:14:13;;;;;;;6.90;6.40;;;23.40;98.00;;;;;;5014213;28;20178;-65
2022/08/16 07:16:40;;;;;;;7.70;6.87;;;23.50;98.00;;;;;;5013418;28;20187;-64
2022/08/16 07:19:07;;;;;;;8.73;7.93;;;23.60;98.20;;;;;;5014999;28;20446;-65
2022/08/16 07:21:35;;;;;;;8.77;8.07;;;23.60;97.80;;;;;;5015189;28;20457;-65
2022/08/16 07:24:04;;;;;;;8.03;7.30;;;23.70;97.60;;;;;;5014706;28;20426;-66
2022/08/16 07:26:30;;;;;;;10.33;8.47;;;23.80;97.70;;;;;;5014773;28;20410;-66
2022/08/16 07:28:56;;;;;;;7.33;6.83;;;23.80;97.20;;;;;;5014058;28;20762;-65
2022/08/16 07:31:21;;;;;;;7.03;6.53;;;23.90;96.90;;;;;;4997304;28;20187;-66
2022/08/16 07:33:47;;;;;;;8.60;8.00;;;24.00;96.90;;;;;;5014512;28;20183;-63
2022/08/16 07:36:14;;;;;;;8.40;7.70;;;24.10;96.70;;;;;;5002310;28;20188;-63
2022/08/16 07:38:41;;;;;;;7.20;6.50;;;24.20;97.00;;;;;;5014268;28;20395;-63
2022/08/16 07:41:07;;;;;;;9.47;7.30;;;24.30;96.90;;;;;;5014118;28;20464;-64
2022/08/16 07:43:33;;;;;;;8.30;7.60;;;24.30;96.60;;;;;;5014871;28;20422;-64
2022/08/16 07:46:00;;;;;;;8.93;8.20;;;24.30;95.60;;;;;;5013679;28;20540;-63
2022/08/16 07:48:26;;;;;;;7.67;7.07;;;24.30;96.40;;;;;;5014499;28;20418;-63
2022/08/16 07:50:52;;;;;;;7.93;7.43;;;24.40;96.50;;;;;;5010305;28;20438;-63
2022/08/16 07:53:18;;;;;;;8.47;7.73;;;24.50;96.10;;;;;;5010606;28;20445;-63
2022/08/16 07:55:44;;;;;;;9.03;8.20;;;24.60;95.80;;;;;;5011706;28;21165;-63
2022/08/16 07:58:10;;;;;;;7.73;7.07;;;24.70;95.80;;;;;;5011212;28;20425;-63
2022/08/16 08:00:36;;;;;;;8.50;7.90;;;24.80;95.70;;;;;;5014316;28;20179;-65
2022/08/16 08:03:03;;;;;;;8.83;8.23;;;24.90;95.60;;;;;;5013329;28;20223;-63
2022/08/16 08:05:29;;;;;;;8.43;7.93;;;25.10;96.30;;;;;;5014322;28;20783;-63
2022/08/16 08:07:55;;;;;;;8.83;8.23;;;25.10;96.90;;;;;;5012485;28;20484;-64
2022/08/16 08:10:23;;;;;;;8.27;7.63;;;25.20;96.60;;;;;;5013945;28;20432;-63
2022/08/16 08:12:50;;;;;;;8.50;7.63;;;25.30;96.70;;;;;;5013424;28;20908;-63
2022/08/16 08:15:17;;;;;;;8.70;8.10;;;25.40;95.70;;;;;;5014154;28;20418;-63
2022/08/16 08:17:43;;;;;;;9.60;8.00;;;25.50;94.80;;;;;;5013172;28;20925;-64
2022/08/16 08:20:12;;;;;;;9.30;8.60;;;25.60;94.30;;;;;;5014366;28;20406;-63
2022/08/16 08:22:38;;;;;;;8.90;8.20;;;25.70;94.30;;;;;;5014005;28;20179;-65
2022/08/16 08:25:06;;;;;;;7.40;7.00;;;25.80;93.90;;;;;;4995673;28;20535;-65
2022/08/16 08:27:31;;;;;;;7.57;7.07;;;25.90;93.70;;;;;;5011841;28;20187;-63
2022/08/16 08:29:57;;;;;;;8.63;8.13;;;26.00;94.80;;;;;;5011936;28;20484;-66
2022/08/16 08:32:24;;;;;;;8.50;7.90;;;26.10;93.30;;;;;;5013932;28;20258;-65
2022/08/16 08:34:49;;;;;;;9.03;8.40;;;26.20;93.40;;;;;;5013127;28;20183;-65
2022/08/16 08:37:15;;;;;;;9.67;8.97;;;26.30;93.20;;;;;;5013697;28;20465;-65
2022/08/16 08:39:41;;;;;;;8.50;7.90;;;26.40;93.10;;;;;;5013120;28;20484;-68
2022/08/16 08:42:07;;;;;;;9.37;8.47;;;26.50;93.40;;;;;;4952927;29;20276;-66
2022/08/16 08:44:33;;;;;;;8.53;7.93;;;26.60;92.60;;;;;;4952819;29;21023;-65
2022/08/16 08:47:02;;;;;;;7.83;7.30;;;26.70;93.40;;;;;;4952247;29;20431;-64
2022/08/16 08:49:29;;;;;;;8.37;7.67;;;26.90;92.70;;;;;;4952936;29;20475;-65
2022/08/16 08:51:55;;;;;;;8.73;8.13;;;27.00;92.60;;;;;;4952424;29;20412;-65
2022/08/16 08:54:21;;;;;;;9.90;8.00;;;27.10;91.40;;;;;;4953125;29;20979;-65
2022/08/16 08:56:46;;;;;;;8.63;8.03;;;27.20;91.60;;;;;;4952217;29;20500;-65
2022/08/16 08:59:13;;;;;;;9.77;9.03;;;27.30;91.10;;;;;;4952770;29;20240;-65
2022/08/16 09:01:39;;;;;;;8.37;7.57;;;27.40;90.80;;;;;;4952474;28;20189;-65
2022/08/16 09:04:06;;;;;;;8.87;8.07;;;27.50;91.00;;;;;;4951540;29;20501;-65
2022/08/16 09:06:35;;;;;;;8.53;8.00;;;27.60;90.50;;;;;;4952639;29;20421;-65
2022/08/16 09:09:02;;;;;;;8.73;8.03;;;27.70;91.50;;;;;;4951971;29;20829;-65
2022/08/16 09:11:28;;;;;;;9.13;8.60;;;27.90;90.30;;;;;;4952574;29;20412;-65
2022/08/16 09:13:54;;;;;;;9.47;8.80;;;28.00;88.40;;;;;;5002481;28;20777;-65
2022/08/16 09:16:20;;;;;;;9.33;8.80;;;28.10;90.00;;;;;;5013113;28;20418;-65
2022/08/16 09:18:46;;;;;;;9.20;8.50;;;28.20;86.90;;;;;;5012510;28;20532;-65
2022/08/16 09:21:13;;;;;;;9.83;9.33;;;28.30;89.50;;;;;;5013039;28;20406;-65
2022/08/16 09:23:39;;;;;;;10.77;9.87;;;28.40;89.80;;;;;;5013038;28;20412;-65
2022/08/16 09:26:07;;;;;;;8.57;8.07;;;28.60;88.80;;;;;;5012365;28;20496;-65
2022/08/16 09:28:33;;;;;;;9.07;8.57;;;28.70;87.30;;;;;;5013013;28;20899;-64
2022/08/16 09:30:59;;;;;;;9.20;8.70;;;28.90;84.70;;;;;;5012317;28;20889;-65
2022/08/16 09:33:25;;;;;;;9.33;8.70;;;29.10;84.70;;;;;;4995396;28;20517;-64
2022/08/16 09:35:51;;;;;;;7.60;7.10;;;29.30;84.20;;;;;;4994489;28;20509;-65
2022/08/16 09:38:17;;;;;;;8.73;8.03;;;29.40;81.50;;;;;;5012961;28;20183;-65
2022/08/16 09:40:45;;;;;;;9.10;8.33;;;29.60;80.70;;;;;;5012856;28;20398;-65
2022/08/16 09:43:14;;;;;;;8.93;8.33;;;29.80;81.00;;;;;;5012842;28;20190;-65
2022/08/16 09:45:41;;;;;;;8.30;7.53;;;29.90;79.70;;;;;;5012652;28;20504;-65
2022/08/16 09:48:11;;;;;;;9.07;8.30;;;30.10;79.50;;;;;;5012136;28;20464;-63
2022/08/16 09:50:38;;;;;;;8.60;8.00;;;30.00;75.80;;;;;;5012722;28;20577;-63
2022/08/16 09:53:12;;;;;;;9.40;8.70;;;30.00;77.30;;;;;;5012136;28;20415;-63
2022/08/16 09:55:39;;;;;;;9.60;9.00;;;30.10;75.80;;;;;;5012771;28;20403;-64
2022/08/16 09:58:05;;;;;;;8.40;7.90;;;30.30;76.60;;;;;;4929620;28;20678;-63
2022/08/16 10:00:31;;;;;;;8.60;7.80;;;30.40;76.50;;;;;;5012694;28;20770;-63
2022/08/16 10:02:57;;;;;;;10.30;9.50;;;30.50;73.60;;;;;;5011859;28;20218;-63
2022/08/16 10:05:23;;;;;;;9.87;9.10;;;30.50;73.50;;;;;;5012520;28;20678;-63
2022/08/16 10:07:52;;;;;;;8.47;7.97;;;30.70;73.90;;;;;;5011709;28;20771;-63
2022/08/16 10:10:20;;;;;;;9.47;8.87;;;30.70;71.40;;;;;;5012712;28;20894;-63
2022/08/16 10:15:31;;;;;;;8.70;8.20;;;30.80;72.50;;;;;;5016484;28;20405;-65
2022/08/16 10:17:57;;;;;;;9.63;9.03;;;30.90;70.50;;;;;;5015754;28;20875;-65
2022/08/16 10:20:24;;;;;;;9.60;8.90;;;31.00;70.70;;;;;;5016272;28;20889;-64
2022/08/16 10:22:51;;;;;;;11.53;10.93;;;30.90;66.80;;;;;;5015620;28;20433;-66
2022/08/16 10:25:17;;;;;;;9.37;8.67;;;30.70;67.40;;;;;;5015935;28;20944;-64
2022/08/16 10:27:45;;;;;;;10.33;9.63;;;30.70;69.10;;;;;;5016163;28;20771;-63
2022/08/16 10:30:11;;;;;;;9.50;8.77;;;30.70;67.20;;;;;;5015525;28;20771;-63
2022/08/16 10:32:36;;;;;;;10.97;9.37;;;30.50;67.00;;;;;;5015804;28;20422;-65
2022/08/16 10:35:03;;;;;;;10.60;9.90;;;30.30;69.20;;;;;;5015058;28;20434;-63
2022/08/16 10:37:29;;;;;;;9.17;8.57;;;30.30;70.60;;;;;;5015762;28;20210;-63
2022/08/16 10:39:55;;;;;;;8.60;7.90;;;30.40;67.70;;;;;;5015082;28;20956;-63
2022/08/16 10:42:21;;;;;;;9.47;8.87;;;30.50;69.90;;;;;;5015919;28;20509;-65
2022/08/16 10:44:48;;;;;;;8.53;8.03;;;30.70;68.50;;;;;;5015768;28;20221;-65
2022/08/16 10:47:14;;;;;;;8.10;7.60;;;30.90;67.00;;;;;;5015766;28;20681;-65
2022/08/16 10:49:39;;;;;;;9.00;8.40;;;31.10;66.20;;;;;;5015992;28;20505;-65
2022/08/16 10:52:06;;;;;;;8.63;8.23;;;31.30;66.50;;;;;;5015398;28;20615;-65
2022/08/16 10:54:32;;;;;;;9.47;8.97;;;31.50;65.30;;;;;;5015683;28;20453;-63
2022/08/16 10:56:59;;;;;;;11.30;10.60;;;31.80;64.40;;;;;;5015094;28;20909;-63
2022/08/16 10:59:26;;;;;;;9.47;8.60;;;31.90;62.80;;;;;;5015690;28;20414;-63
2022/08/16 11:01:52;;;;;;;9.00;8.50;;;32.10;61.50;;;;;;5014879;28;20414;-64
2022/08/16 11:04:18;;;;;;;9.10;8.40;;;32.20;60.70;;;;;;5014985;28;20480;-63
2022/08/16 11:06:43;;;;;;;9.63;9.13;;;32.20;60.20;;;;;;5015765;28;20695;-63
2022/08/16 11:09:09;;;;;;;9.00;8.20;;;32.20;60.30;;;;;;5014708;28;20183;-63
2022/08/16 11:11:35;;;;;;;8.10;7.70;;;32.20;60.00;;;;;;5015492;28;20175;-63
2022/08/16 11:14:00;;;;;;;8.13;7.53;;;32.20;58.50;;;;;;5014736;28;20326;-63
2022/08/16 11:16:29;;;;;;;11.20;10.50;;;32.30;58.50;;;;;;5015305;28;20654;-63
2022/08/16 11:18:56;;;;;;;9.23;8.60;;;32.30;58.40;;;;;;5014611;28;20182;-63
2022/08/16 11:21:24;;;;;;;8.97;8.37;;;32.40;58.20;;;;;;4997464;28;20509;-63
2022/08/16 11:23:52;;;;;;;9.10;8.43;;;32.50;58.50;;;;;;4997258;28;20429;-70
2022/08/16 11:26:18;;;;;;;8.87;8.17;;;32.50;58.50;;;;;;5015227;28;20820;-63
2022/08/16 11:28:45;;;;;;;9.13;8.43;;;32.60;59.00;;;;;;5014957;28;20740;-63
2022/08/16 11:31:10;;;;;;;8.93;8.43;;;32.50;58.20;;;;;;5014416;28;20479;-63
2022/08/16 11:33:36;;;;;;;8.83;8.13;;;32.40;57.80;;;;;;5014564;28;20410;-63
2022/08/16 11:36:02;;;;;;;9.13;8.60;;;32.20;58.00;;;;;;5014357;28;20219;-63
2022/08/16 11:38:28;;;;;;;14.63;13.27;;;32.20;58.40;;;;;;5014597;28;20587;-63
2022/08/16 11:40:57;;;;;;;11.63;10.83;;;32.10;58.20;;;;;;5014207;28;20399;-64
2022/08/16 11:43:35;;;;;;;8.30;7.80;;;32.20;58.20;;;;;;4997215;28;20618;-63
2022/08/16 11:46:07;;;;;;;8.87;8.27;;;32.20;57.90;;;;;;5014098;28;20477;-63
2022/08/16 11:48:33;;;;;;;8.93;8.13;;;32.30;58.00;;;;;;5014624;28;20398;-63
2022/08/16 11:51:00;;;;;;;8.77;8.10;;;32.30;57.30;;;;;;5014186;28;20474;-63
2022/08/16 11:53:28;;;;;;;9.50;8.90;;;32.30;57.50;;;;;;5014638;28;20745;-63
2022/08/16 11:55:54;;;;;;;8.33;7.60;;;32.30;55.70;;;;;;4996394;28;20841;-64
2022/08/16 11:58:22;;;;;;;11.03;10.23;;;32.20;54.90;;;;;;5014677;28;20936;-63
2022/08/16 12:00:48;;;;;;;8.00;7.50;;;32.20;55.90;;;;;;5014634;28;20420;-63
2022/08/16 12:03:15;;;;;;;8.93;8.53;;;32.30;56.00;;;;;;5013675;28;20464;-63
2022/08/16 12:05:43;;;;;;;7.67;7.27;;;32.40;54.50;;;;;;5013874;28;20527;-63
2022/08/16 12:08:10;;;;;;;9.27;8.67;;;32.50;53.60;;;;;;5013000;28;20632;-63
2022/08/16 12:10:38;;;;;;;8.97;8.33;;;32.60;53.10;;;;;;5014318;28;20406;-63
2022/08/16 12:13:05;;;;;;;7.90;7.30;;;32.60;53.60;;;;;;5013466;28;20469;-64
2022/08/16 12:15:31;;;;;;;9.27;8.77;;;32.60;54.20;;;;;;5014231;28;20417;-64
2022/08/16 12:17:57;;;;;;;8.40;7.90;;;32.60;54.60;;;;;;5013477;28;20418;-64
2022/08/16 12:20:31;;;;;;;10.87;10.07;;;32.60;53.60;;;;;;5013829;28;20257;-64
2022/08/16 12:22:57;;;;;;;8.80;8.10;;;32.60;53.70;;;;;;5013471;28;20170;-64
2022/08/16 12:25:27;;;;;;;8.10;7.70;;;32.70;54.70;;;;;;4996295;28;20868;-64
2022/08/16 12:27:53;;;;;;;9.10;8.50;;;32.70;54.40;;;;;;5013952;28;20402;-64
2022/08/16 12:30:27;;;;;;;9.00;8.10;;;32.80;54.40;;;;;;5013580;28;20878;-64
2022/08/16 12:32:57;;;;;;;10.27;9.47;;;32.80;54.00;;;;;;5013926;28;20414;-64
2022/08/16 12:35:24;;;;;;;12.13;11.10;;;32.90;54.40;;;;;;5013830;28;20406;-64
2022/08/16 12:37:50;;;;;;;10.10;9.60;;;32.90;53.90;;;;;;5013529;28;20417;-65
2022/08/16 12:40:23;;;;;;;7.60;7.03;;;33.00;53.60;;;;;;4962315;28;20488;-65
2022/08/16 12:42:50;;;;;;;10.60;9.97;;;32.80;51.90;;;;;;5013794;28;20402;-64
2022/08/16 12:45:19;;;;;;;8.33;7.83;;;32.70;52.50;;;;;;5012637;28;20465;-65
2022/08/16 12:50:30;;;;;;;9.90;9.27;;;32.40;53.60;;;;;;5013314;28;20912;-64